Time;durP1;ratioP1;P1;durP2;ratioP2;P2;SDS_P1;SDS_P2;PMS_P1;PMS_P2;Temp;Humidity;BMP_temperature;BMP_pressure;BME280_temperature;BME280_humidity;BME280_pressure;Samples;Min_cycle;Max_cycle;Signal;HPM_P1;HPM_P2
2021/05/05 00:00:07;;;;;;;1.38;0.40;;;;;;;17.51;49.18;100072.56;4976480;27;4737347;-79
2021/05/05 00:02:35;;;;;;;1.27;0.60;;;;;;;17.48;49.39;100074.34;5102760;28;20064;-79
2021/05/05 00:05:01;;;;;;;1.63;0.50;;;;;;;17.47;49.22;100062.22;5139856;22;20037;-79
2021/05/05 00:07:27;;;;;;;1.40;0.57;;;;;;;17.48;49.12;100074.34;5068556;22;20040;-81
2021/05/05 00:09:59;;;;;;;3.38;0.68;;;;;;;17.50;49.04;100068.25;5046785;28;20065;-79
2021/05/05 00:16:28;;;;;;;1.38;0.60;;;;;;;17.50;49.12;100078.66;5051280;28;20017;-79
2021/05/05 00:18:53;;;;;;;3.17;0.63;;;;;;;17.49;49.13;100067.41;5045824;28;20029;-80
2021/05/05 00:25:10;;;;;;;2.33;1.02;;;;;;;17.48;49.04;100071.75;5051385;28;20060;-81
2021/05/05 00:27:35;;;;;;;;;;;;;;;17.48;48.98;100078.69;5051146;28;20017;-79
2021/05/05 00:30:16;;;;;;;1.85;0.65;;;;;;;17.45;49.17;100084.81;5093844;23;19921;-81
2021/05/05 00:36:11;;;;;;;1.58;0.52;;;;;;;17.46;49.20;100086.53;5072181;28;20208;-79
2021/05/05 00:38:53;;;;;;;2.13;0.68;;;;;;;17.46;49.15;100083.06;5072561;28;20029;-79
2021/05/05 00:41:22;;;;;;;1.90;0.80;;;;;;;17.43;49.13;100076.19;5089707;22;20063;-79
2021/05/05 01:19:39;;;;;;;1.20;0.70;;;;;;;17.39;49.01;100073.69;5745431;23;20055;-80
2021/05/05 01:25:53;;;;;;;1.67;0.65;;;;;;;17.39;49.04;100063.28;5004256;23;20090;-80
2021/05/05 01:28:19;;;;;;;0.93;0.50;;;;;;;17.39;49.19;100065.88;4961263;29;20071;-80
2021/05/05 01:34:12;;;;;;;1.77;0.70;;;;;;;17.41;48.86;100064.09;5026116;23;20086;-80
2021/05/05 01:40:04;;;;;;;1.27;0.40;;;;;;;17.36;48.77;100061.59;5003819;23;20053;-80
2021/05/05 01:42:31;;;;;;;2.20;0.60;;;;;;;17.36;49.00;100058.16;4946667;28;20059;-79
2021/05/05 01:45:00;;;;;;;2.03;0.80;;;;;;;17.38;48.98;100074.59;5018174;23;20051;-79
2021/05/05 01:47:30;;;;;;;1.58;0.60;;;;;;;17.35;48.90;100079.81;4963074;28;20039;-79
2021/05/05 01:49:57;;;;;;;1.17;0.60;;;;;;;17.35;48.74;100070.28;4993108;28;20035;-79
2021/05/05 01:52:33;;;;;;;1.25;0.57;;;;;;;17.37;49.03;100075.44;4994861;28;20027;-80
2021/05/05 01:54:58;;;;;;;1.45;0.50;;;;;;;17.35;49.06;100072.88;5026068;23;20055;-79
2021/05/05 01:57:44;;;;;;;1.27;0.70;;;;;;;17.37;48.80;100075.44;4968254;23;20035;-79
2021/05/05 02:03:36;;;;;;;1.80;0.63;;;;;;;17.36;49.00;100064.19;4973176;29;20059;-79
2021/05/05 02:06:03;;;;;;;1.10;0.50;;;;;;;17.35;48.89;100070.28;4958545;29;20059;-80
2021/05/05 02:08:29;;;;;;;1.17;0.50;;;;;;;17.33;48.80;100064.25;4974619;29;20063;-79
2021/05/05 02:17:05;;;;;;;1.20;0.50;;;;;;;17.32;48.84;100062.56;4959060;29;20047;-82
2021/05/05 02:19:56;;;;;;;1.48;0.60;;;;;;;17.31;48.87;100060.84;4972542;29;20445;-80
2021/05/05 02:22:22;;;;;;;1.65;0.60;;;;;;;17.33;48.90;100061.66;4969858;28;20082;-79
2021/05/05 02:24:48;;;;;;;1.85;0.70;;;;;;;17.31;49.07;100068.66;4955437;29;20047;-79
2021/05/05 02:27:21;;;;;;;1.83;0.82;;;;;;;17.30;48.79;100066.91;4987451;23;20047;-80
2021/05/05 02:33:27;;;;;;;1.70;0.50;;;;;;;17.32;48.76;100072.09;4992151;28;20090;-80
2021/05/05 02:35:55;;;;;;;1.33;0.60;;;;;;;17.32;48.65;100066.91;4991336;28;20062;-81
2021/05/05 02:38:21;;;;;;;1.70;0.60;;;;;;;17.28;48.79;100063.50;4956670;28;20038;-79
2021/05/05 02:40:49;;;;;;;2.15;0.65;;;;;;;17.27;48.97;100061.81;4957488;28;20046;-80
2021/05/05 02:43:16;;;;;;;1.35;0.57;;;;;;;17.28;48.96;100060.91;4971634;28;20039;-79
2021/05/05 02:45:42;;;;;;;1.65;0.65;;;;;;;17.30;48.92;100081.69;4975408;28;20039;-79
2021/05/05 02:48:09;;;;;;;1.02;0.50;;;;;;;17.30;48.92;100063.47;4941230;28;20089;-79
2021/05/05 02:50:38;;;;;;;1.60;0.65;;;;;;;17.28;48.75;100061.75;4956674;28;20063;-79
2021/05/05 02:53:05;;;;;;;2.72;0.60;;;;;;;17.30;48.85;100064.31;4992122;28;20429;-79
2021/05/05 02:55:31;;;;;;;1.70;0.60;;;;;;;17.26;48.98;100066.13;4975640;28;20070;-80
2021/05/05 02:57:57;;;;;;;1.80;0.60;;;;;;;17.26;48.89;100060.91;4973711;28;20030;-79
2021/05/05 03:00:23;;;;;;;2.65;0.75;;;;;;;17.26;48.88;100070.47;4991363;28;20030;-79
2021/05/05 03:02:51;;;;;;;1.45;0.60;;;;;;;17.30;48.80;100071.28;4991027;28;20027;-80
2021/05/05 03:05:19;;;;;;;1.67;0.60;;;;;;;17.28;48.88;100074.75;4993053;28;20030;-79
2021/05/05 03:07:46;;;;;;;1.52;0.60;;;;;;;17.25;48.89;100067.03;4940132;28;20040;-80
2021/05/05 03:10:12;;;;;;;2.58;0.73;;;;;;;17.26;48.81;100073.91;4972314;28;20023;-79
2021/05/05 03:12:38;;;;;;;2.25;0.85;;;;;;;17.26;48.77;100067.88;4971211;28;20445;-79
2021/05/05 03:15:11;;;;;;;1.08;0.55;;;;;;;17.28;48.79;100071.28;4971802;28;20038;-80
2021/05/05 03:17:43;;;;;;;1.45;0.60;;;;;;;17.26;48.90;100071.31;4989679;28;20102;-79
2021/05/05 03:20:17;;;;;;;1.83;0.70;;;;;;;17.26;48.62;100080.88;4971306;28;20057;-79
2021/05/05 03:22:46;;;;;;;1.48;0.50;;;;;;;17.25;48.86;100071.38;4971980;28;20031;-79
2021/05/05 03:28:58;;;;;;;2.13;0.60;;;;;;;17.24;48.82;100075.69;4987081;28;20082;-79
2021/05/05 03:31:24;;;;;;;1.15;0.50;;;;;;;17.26;48.88;100084.31;4947393;29;20094;-80
2021/05/05 03:33:51;;;;;;;1.60;0.65;;;;;;;17.23;48.90;100084.41;4949555;29;20530;-79
2021/05/05 03:39:37;;;;;;;1.50;0.70;;;;;;;17.25;48.75;100087.81;5028408;23;20110;-79
2021/05/05 03:42:04;;;;;;;1.80;0.70;;;;;;;17.22;48.74;100087.00;4972856;28;20038;-79
2021/05/05 03:44:32;;;;;;;1.63;0.63;;;;;;;17.24;48.76;100087.84;4956839;28;20070;-79
2021/05/05 03:46:59;;;;;;;2.50;0.65;;;;;;;17.26;48.77;100093.88;4958526;28;20023;-79
2021/05/05 03:52:48;;;;;;;1.85;0.80;;;;;;;17.22;48.71;100080.09;4994314;28;20053;-79
2021/05/05 03:55:22;;;;;;;1.55;0.60;;;;;;;17.21;48.92;100090.53;4980520;28;20031;-79
2021/05/05 03:58:06;;;;;;;1.58;0.60;;;;;;;17.23;48.75;100087.00;4979388;28;20039;-78
2021/05/05 04:00:38;;;;;;;0.95;0.50;;;;;;;17.21;48.68;100082.72;4988848;28;20116;-78
2021/05/05 04:06:44;;;;;;;1.58;0.77;;;;;;;17.23;48.85;100081.78;4990374;28;20070;-79
2021/05/05 04:09:19;;;;;;;2.20;0.70;;;;;;;17.22;49.02;100081.81;4971305;28;20031;-79
2021/05/05 04:37:37;;;;;;;2.63;0.88;;;;;;;17.33;48.45;100105.00;4663931;26;20091;-78
2021/05/05 04:40:07;;;;;;;3.78;1.40;;;;;;;17.37;48.68;100104.91;4936969;29;20046;-78
2021/05/05 04:42:33;;;;;;;3.05;0.90;;;;;;;17.40;48.47;100102.25;4950503;29;20397;-78
2021/05/05 04:45:02;;;;;;;1.00;0.60;;;;;;;17.43;48.27;100102.19;4966085;28;20423;-81
2021/05/05 04:47:28;;;;;;;3.60;1.02;;;;;;;17.46;48.21;100104.75;4954527;29;20015;-82
2021/05/05 04:49:56;;;;;;;2.03;0.70;;;;;;;17.47;48.26;100124.66;4957264;29;20035;-80
2021/05/05 04:52:22;;;;;;;3.25;0.95;;;;;;;17.48;48.21;100115.09;4954598;29;20035;-79
2021/05/05 04:54:48;;;;;;;2.38;0.85;;;;;;;17.45;48.26;100121.22;4971401;29;20031;-80
2021/05/05 04:57:13;;;;;;;3.17;0.98;;;;;;;17.42;48.33;100121.31;4937559;29;20040;-79
2021/05/05 04:59:39;;;;;;;3.78;0.80;;;;;;;17.44;48.46;100126.44;4970058;28;20069;-80
2021/05/05 05:02:08;;;;;;;1.15;0.80;;;;;;;17.46;48.18;100130.75;4958482;29;20035;-79
2021/05/05 05:04:37;;;;;;;1.80;0.82;;;;;;;17.49;48.17;100135.03;4957927;29;20083;-79
2021/05/05 05:10:39;;;;;;;2.58;0.85;;;;;;;17.53;47.87;100143.63;4995620;28;20119;-79
2021/05/05 05:13:06;;;;;;;2.05;0.68;;;;;;;17.56;48.03;100139.22;4975888;28;20046;-79
2021/05/05 05:15:37;;;;;;;2.97;0.90;;;;;;;17.63;47.72;100150.34;4969690;28;20635;-80
2021/05/05 05:18:04;;;;;;;2.28;0.70;;;;;;;17.63;47.82;100148.59;4992551;28;20031;-80
2021/05/05 05:20:33;;;;;;;3.50;0.80;;;;;;;17.62;47.71;100159.91;4994229;28;20381;-80
2021/05/05 05:22:59;;;;;;;1.58;0.73;;;;;;;17.61;47.76;100159.94;4978043;28;20034;-81
2021/05/05 05:25:27;;;;;;;1.77;0.80;;;;;;;17.52;47.74;100168.78;4974931;28;20042;-81
2021/05/05 05:27:53;;;;;;;2.08;0.73;;;;;;;17.49;48.04;100184.47;4943832;28;20077;-79
2021/05/05 05:33:43;;;;;;;1.50;0.60;;;;;;;17.60;47.95;100169.50;4993628;28;20074;-80
2021/05/05 05:36:09;;;;;;;3.85;0.90;;;;;;;17.65;47.45;100174.59;4974774;28;20117;-79
2021/05/05 05:38:35;;;;;;;3.80;0.88;;;;;;;17.73;47.26;100183.13;4991018;28;20055;-80
2021/05/05 05:41:03;;;;;;;2.38;0.77;;;;;;;17.86;46.96;100182.00;4974015;28;20494;-81
2021/05/05 05:43:29;;;;;;;2.17;1.00;;;;;;;17.98;46.53;100177.41;5001448;23;20050;-80
2021/05/05 05:45:54;;;;;;;3.10;0.88;;;;;;;17.80;46.92;100174.28;4953949;28;20034;-80
2021/05/05 05:48:21;;;;;;;1.75;0.80;;;;;;;17.65;47.55;100179.81;4971466;28;20058;-81
2021/05/05 05:50:46;;;;;;;2.88;0.70;;;;;;;17.55;47.46;100178.25;4985976;28;20097;-81
2021/05/05 05:53:12;;;;;;;2.38;0.90;;;;;;;17.53;47.89;100185.25;4987539;28;20031;-84
2021/05/05 05:55:45;;;;;;;2.03;0.70;;;;;;;17.52;47.88;100193.94;4988759;28;20027;-80
2021/05/05 05:58:14;;;;;;;1.52;0.70;;;;;;;17.49;47.78;100200.06;5103754;23;20059;-81
2021/05/05 06:04:39;;;;;;;2.60;0.80;;;;;;;17.52;47.54;100201.75;4991319;28;20130;-80
2021/05/05 06:07:06;;;;;;;1.20;0.65;;;;;;;17.77;47.06;100192.56;4990772;28;20019;-80
2021/05/05 06:09:31;;;;;;;1.70;0.85;;;;;;;18.66;44.51;100202.75;4978642;28;20061;-85
2021/05/05 06:11:56;;;;;;;2.45;0.80;;;;;;;18.99;43.79;100197.63;4960212;28;20062;-82
2021/05/05 06:14:22;;;;;;;2.45;0.88;;;;;;;18.81;44.62;100199.81;4959753;28;20059;-87
2021/05/05 06:16:47;;;;;;;2.38;0.80;;;;;;;19.29;43.43;100198.59;4976979;28;20401;-84
2021/05/05 06:19:13;;;;;;;2.70;0.90;;;;;;;19.58;42.48;100192.59;4959921;28;20050;-84
2021/05/05 06:21:38;;;;;;;2.50;0.80;;;;;;;19.62;42.16;100190.75;4977225;28;20117;-84
2021/05/05 06:24:05;;;;;;;1.65;0.63;;;;;;;18.96;43.95;100210.78;4978757;28;20023;-83
2021/05/05 06:26:30;;;;;;;3.25;0.73;;;;;;;18.36;45.83;100214.78;4977856;28;20034;-85
2021/05/05 06:32:55;;;;;;;2.28;0.93;;;;;;;17.98;46.57;100229.47;4981186;28;20066;-85
2021/05/05 06:35:21;;;;;;;2.15;0.70;;;;;;;17.94;46.63;100231.28;4986887;28;20027;-83
2021/05/05 06:37:49;;;;;;;1.60;0.75;;;;;;;17.98;46.34;100245.09;4970849;28;20027;-82
2021/05/05 06:40:15;;;;;;;1.63;0.70;;;;;;;18.06;46.22;100245.81;4965835;28;20062;-82
2021/05/05 06:42:41;;;;;;;1.42;0.70;;;;;;;17.92;46.32;100242.63;4986739;28;20035;-80
2021/05/05 06:45:09;;;;;;;1.85;0.80;;;;;;;17.78;46.77;100251.53;4990673;28;20027;-83
2021/05/05 06:47:35;;;;;;;1.75;0.70;;;;;;;17.72;46.71;100246.44;4990445;28;20034;-80
2021/05/05 06:50:00;;;;;;;1.92;0.60;;;;;;;17.77;46.64;100256.75;4975908;28;20058;-81
2021/05/05 06:52:29;;;;;;;2.33;0.80;;;;;;;17.88;46.54;100252.25;4990574;28;20055;-86
2021/05/05 06:54:54;;;;;;;1.85;0.75;;;;;;;18.06;46.08;100262.28;4986607;28;20113;-89
2021/05/05 06:57:20;;;;;;;2.35;0.90;;;;;;;18.98;43.76;100267.19;4991909;28;20057;-86
2021/05/05 06:59:45;;;;;;;2.88;0.88;;;;;;;19.81;41.80;100267.69;4978618;28;20057;-83
2021/05/05 07:02:11;;;;;;;2.20;0.80;;;;;;;19.84;41.50;100265.00;4983837;28;20121;-86
2021/05/05 07:04:37;;;;;;;1.98;0.90;;;;;;;19.92;41.47;100260.41;4981763;28;20031;-81
2021/05/05 07:07:02;;;;;;;1.98;0.80;;;;;;;20.12;40.88;100258.97;4983082;28;20027;-83
2021/05/05 07:09:28;;;;;;;1.65;0.90;;;;;;;20.16;40.74;100268.44;4963889;28;20034;-80
2021/05/05 07:11:56;;;;;;;1.95;0.90;;;;;;;19.28;42.66;100275.16;4964453;28;20492;-82
2021/05/05 07:14:22;;;;;;;2.33;1.00;;;;;;;19.51;42.68;100270.22;4961660;28;20028;-83
2021/05/05 07:16:47;;;;;;;1.20;0.63;;;;;;;19.90;41.31;100285.72;4962912;28;20037;-87
2021/05/05 07:19:13;;;;;;;2.03;0.80;;;;;;;19.99;41.29;100282.00;4962107;28;20046;-84
2021/05/05 07:21:39;;;;;;;2.78;0.80;;;;;;;19.05;43.73;100278.34;4942249;28;20397;-85
2021/05/05 07:24:05;;;;;;;2.47;0.60;;;;;;;18.93;44.22;100281.25;4944986;28;20042;-85
2021/05/05 07:26:31;;;;;;;0.68;0.47;;;;;;;19.22;43.46;100283.97;4962464;28;20026;-87
2021/05/05 07:28:56;;;;;;;1.63;0.75;;;;;;;18.72;44.70;100283.41;4977185;28;20029;-88
2021/05/05 07:31:22;;;;;;;1.38;0.70;;;;;;;18.47;45.37;100283.13;4943937;28;20470;-87
2021/05/05 07:33:50;;;;;;;3.53;0.88;;;;;;;18.22;45.74;100307.06;4927692;28;20149;-86
2021/05/05 07:36:19;;;;;;;2.50;0.85;;;;;;;18.04;46.39;100299.66;4977988;28;20027;-85
2021/05/05 07:41:42;;;;;;;1.90;0.70;;;;;;;18.35;45.32;100307.69;4978463;28;20062;-85
2021/05/05 07:46:50;;;;;;;1.45;0.60;;;;;;;18.06;45.93;100316.09;4981317;28;20087;-82
2021/05/05 07:49:17;;;;;;;2.13;0.77;;;;;;;18.19;45.73;100319.31;4980447;28;20397;-84
2021/05/05 07:51:43;;;;;;;1.90;0.60;;;;;;;19.06;43.88;100313.97;4979099;28;20401;-84
2021/05/05 07:54:09;;;;;;;1.90;0.70;;;;;;;19.50;42.47;100304.16;4976676;28;20069;-83
2021/05/05 07:56:35;;;;;;;1.58;0.70;;;;;;;19.30;43.09;100304.69;4978323;28;20437;-83
2021/05/05 07:59:03;;;;;;;1.48;0.70;;;;;;;18.55;44.75;100315.06;4968791;28;20062;-84
2021/05/05 08:01:30;;;;;;;2.05;0.80;;;;;;;18.27;45.74;100335.66;4974799;28;20101;-85
2021/05/05 08:03:57;;;;;;;1.35;0.70;;;;;;;18.24;45.64;100333.94;4974269;28;20029;-83
2021/05/05 08:06:23;;;;;;;1.45;0.70;;;;;;;18.47;45.04;100337.84;4976245;28;20054;-86
2021/05/05 08:08:48;;;;;;;1.70;0.88;;;;;;;18.33;45.62;100347.69;4977617;28;20078;-83
2021/05/05 08:11:13;;;;;;;3.95;0.98;;;;;;;18.39;45.32;100338.00;4977755;28;20031;-84
2021/05/05 08:13:39;;;;;;;1.48;0.68;;;;;;;18.32;45.34;100352.03;4975290;28;20034;-84
2021/05/05 08:16:06;;;;;;;1.50;0.70;;;;;;;18.11;45.94;100349.84;4976490;28;20066;-83
2021/05/05 08:18:32;;;;;;;1.55;0.60;;;;;;;18.24;45.73;100357.38;4979856;28;20402;-81
2021/05/05 08:21:00;;;;;;;2.38;0.73;;;;;;;18.19;45.71;100367.06;4980208;28;20027;-81
2021/05/05 08:23:26;;;;;;;0.85;0.50;;;;;;;18.12;46.01;100368.06;4981690;28;20034;-80
2021/05/05 08:25:52;;;;;;;1.65;0.50;;;;;;;18.35;45.48;100364.13;4981266;28;20031;-82
2021/05/05 08:28:17;;;;;;;2.53;0.70;;;;;;;18.23;45.74;100370.47;4984458;28;20122;-82
2021/05/05 08:30:43;;;;;;;2.40;0.63;;;;;;;18.09;46.35;100371.59;4984134;28;20433;-82
2021/05/05 08:33:10;;;;;;;1.17;0.60;;;;;;;17.95;46.46;100375.34;4969876;28;20035;-81
2021/05/05 08:35:39;;;;;;;1.95;0.65;;;;;;;18.11;46.08;100387.16;4987132;28;20050;-80
2021/05/05 08:38:05;;;;;;;1.13;0.70;;;;;;;18.35;45.31;100377.16;4984168;28;20504;-84
2021/05/05 08:40:32;;;;;;;2.40;0.85;;;;;;;18.44;45.35;100379.56;4982392;28;20031;-84
2021/05/05 08:42:58;;;;;;;1.92;0.70;;;;;;;18.32;45.66;100378.09;4966126;28;20063;-82
2021/05/05 08:45:26;;;;;;;2.30;0.73;;;;;;;18.27;45.86;100388.59;4980955;28;20081;-83
2021/05/05 08:47:55;;;;;;;2.45;0.80;;;;;;;18.41;45.44;100387.47;4982059;28;20038;-83
2021/05/05 08:50:24;;;;;;;1.55;0.60;;;;;;;18.28;45.78;100400.72;4980773;28;20042;-83
2021/05/05 08:52:53;;;;;;;1.52;0.70;;;;;;;18.16;46.09;100411.41;4984167;28;20059;-82
2021/05/05 08:55:20;;;;;;;1.83;0.70;;;;;;;18.36;45.47;100402.34;4983343;28;20044;-82
2021/05/05 08:57:46;;;;;;;1.60;0.70;;;;;;;18.38;45.48;100414.44;4982598;28;20097;-85
2021/05/05 09:00:15;;;;;;;1.35;0.70;;;;;;;18.29;45.66;100418.09;4981648;28;20027;-83
2021/05/05 09:02:41;;;;;;;1.70;0.70;;;;;;;18.33;45.70;100423.22;4966149;28;20034;-83
2021/05/05 09:05:10;;;;;;;1.60;0.75;;;;;;;18.37;45.50;100432.69;4980971;28;20039;-82
2021/05/05 09:07:38;;;;;;;2.42;0.70;;;;;;;18.40;45.55;100433.50;4981742;28;20027;-84
2021/05/05 09:10:08;;;;;;;2.20;0.80;;;;;;;18.45;45.42;100443.84;4979500;28;20035;-85
2021/05/05 09:12:36;;;;;;;1.90;0.73;;;;;;;18.41;45.55;100447.38;4965164;28;20026;-85
2021/05/05 09:15:28;;;;;;;1.38;0.60;;;;;;;18.36;45.43;100457.06;4965454;28;20034;-85
2021/05/05 09:17:56;;;;;;;2.22;0.73;;;;;;;18.28;45.79;100455.41;4985873;28;20042;-83
2021/05/05 09:20:32;;;;;;;1.95;0.60;;;;;;;18.41;45.43;100463.03;4998129;28;20031;-83
2021/05/05 09:23:00;;;;;;;1.90;0.70;;;;;;;18.41;45.45;100463.03;4986173;28;20105;-81
2021/05/05 09:25:31;;;;;;;1.92;0.80;;;;;;;18.43;45.30;100466.47;4979299;28;20022;-81
2021/05/05 09:28:12;;;;;;;1.55;0.73;;;;;;;18.41;45.49;100471.69;4979312;28;20058;-82
2021/05/05 09:30:43;;;;;;;1.77;0.80;;;;;;;18.37;45.70;100471.78;4962038;28;20489;-82
2021/05/05 09:33:09;;;;;;;2.05;0.60;;;;;;;18.37;45.55;100482.19;4980441;28;20034;-80
2021/05/05 09:35:40;;;;;;;3.08;0.60;;;;;;;18.40;45.54;100479.53;4962392;28;20417;-83
2021/05/05 09:38:10;;;;;;;2.00;0.70;;;;;;;18.24;45.85;100485.00;4978127;28;20035;-82
2021/05/05 09:40:37;;;;;;;1.23;0.60;;;;;;;18.33;45.78;100503.97;4980074;28;20030;-79
2021/05/05 09:43:16;;;;;;;2.78;0.80;;;;;;;18.39;45.59;100490.84;4960618;28;20050;-80
2021/05/05 09:45:43;;;;;;;2.17;0.70;;;;;;;18.36;45.71;100499.59;4960641;28;20066;-81
2021/05/05 09:48:10;;;;;;;2.00;0.80;;;;;;;18.37;45.73;100505.66;4978159;28;20035;-80
2021/05/05 09:50:44;;;;;;;1.35;0.68;;;;;;;18.33;45.79;100509.19;4961134;28;20026;-81
2021/05/05 09:53:32;;;;;;;2.15;0.90;;;;;;;18.37;45.67;100519.53;4978079;28;20500;-81
2021/05/05 09:55:57;;;;;;;2.15;0.85;;;;;;;18.41;45.36;100522.94;4977891;28;20054;-82
2021/05/05 09:58:38;;;;;;;2.20;0.70;;;;;;;18.40;45.54;100521.22;4977748;28;20039;-82
2021/05/05 10:01:03;;;;;;;3.30;0.70;;;;;;;18.39;45.74;100532.53;4978176;28;20027;-82
2021/05/05 10:03:41;;;;;;;1.67;0.70;;;;;;;18.33;45.83;100535.22;4978051;28;20462;-80
2021/05/05 10:06:16;;;;;;;1.65;0.73;;;;;;;18.41;45.49;100538.56;4978148;28;20027;-81
2021/05/05 10:08:41;;;;;;;2.15;0.80;;;;;;;18.38;45.62;100549.03;4977391;28;20030;-81
2021/05/05 10:11:07;;;;;;;2.28;0.75;;;;;;;18.37;45.71;100552.53;4978700;28;20023;-81
2021/05/05 10:13:32;;;;;;;2.13;0.90;;;;;;;18.30;45.96;100572.63;4977648;28;20035;-80
2021/05/05 10:15:58;;;;;;;1.20;0.57;;;;;;;18.24;45.81;100559.69;4960640;28;20477;-81
2021/05/05 10:18:24;;;;;;;2.63;1.02;;;;;;;18.18;46.17;100570.22;4962073;28;20034;-83
2021/05/05 10:20:50;;;;;;;2.75;1.00;;;;;;;18.16;46.16;100571.97;4963027;28;20031;-82
2021/05/05 10:23:17;;;;;;;1.90;0.60;;;;;;;18.24;46.12;100570.97;4962136;28;20038;-80
2021/05/05 10:25:45;;;;;;;3.50;0.95;;;;;;;18.26;45.76;100589.19;4978737;28;20037;-81
2021/05/05 10:28:10;;;;;;;2.05;0.80;;;;;;;18.27;45.98;100581.34;4945512;28;20090;-82
2021/05/05 10:30:41;;;;;;;2.25;0.80;;;;;;;18.26;46.03;100595.25;4978235;28;20060;-82
2021/05/05 10:33:08;;;;;;;1.65;0.73;;;;;;;18.25;45.88;100598.75;4977696;28;20026;-82
2021/05/05 10:35:33;;;;;;;2.90;0.80;;;;;;;18.19;46.18;100591.03;4960561;28;20030;-81
2021/05/05 10:38:00;;;;;;;2.08;0.75;;;;;;;18.24;46.31;100601.38;4960541;28;20037;-81
2021/05/05 10:40:36;;;;;;;3.67;0.85;;;;;;;18.26;45.79;100617.84;4960417;28;20082;-84
2021/05/05 10:43:06;;;;;;;1.95;0.80;;;;;;;18.21;45.98;100623.13;4959192;28;20054;-81
2021/05/05 10:45:42;;;;;;;2.20;0.85;;;;;;;18.14;46.34;100621.50;4959896;28;20121;-81
2021/05/05 10:48:28;;;;;;;3.13;0.90;;;;;;;18.14;46.44;100637.13;4978275;28;20061;-80
2021/05/05 10:50:58;;;;;;;2.30;0.70;;;;;;;18.13;46.42;100644.94;4979298;28;20031;-81
2021/05/05 10:53:24;;;;;;;1.50;0.80;;;;;;;18.15;46.28;100649.25;4961872;28;20114;-81
2021/05/05 10:55:53;;;;;;;1.98;0.80;;;;;;;18.16;46.23;100653.59;4980004;28;20031;-81
2021/05/05 10:58:32;;;;;;;2.35;0.65;;;;;;;18.07;46.51;100648.50;4967492;28;20050;-83
2021/05/05 11:01:06;;;;;;;1.75;0.60;;;;;;;18.10;46.57;100669.31;4980455;28;20030;-81
2021/05/05 11:03:47;;;;;;;1.75;0.90;;;;;;;18.08;46.42;100676.28;4977589;28;20089;-80
2021/05/05 11:06:35;;;;;;;2.25;0.80;;;;;;;18.07;46.52;100683.22;4980793;28;20110;-81
2021/05/05 11:09:22;;;;;;;1.83;0.70;;;;;;;18.06;46.59;100676.28;4979680;28;20027;-81
2021/05/05 11:11:53;;;;;;;2.13;1.00;;;;;;;18.05;46.67;100686.72;4980099;28;20478;-81
2021/05/05 11:14:24;;;;;;;2.55;0.90;;;;;;;18.05;46.48;100685.00;4980777;28;20030;-80
2021/05/05 11:17:14;;;;;;;1.88;0.85;;;;;;;18.10;46.47;100697.94;4981737;28;20019;-80
2021/05/05 11:19:41;;;;;;;2.22;0.70;;;;;;;18.08;46.43;100697.97;4965348;28;20508;-82
2021/05/05 11:22:19;;;;;;;2.13;0.80;;;;;;;18.05;46.42;100703.22;4980121;28;20037;-81
2021/05/05 11:24:49;;;;;;;2.63;0.80;;;;;;;18.06;46.36;100701.47;4977516;28;20055;-84
2021/05/05 11:27:17;;;;;;;1.95;0.80;;;;;;;18.12;46.18;100717.03;4976796;28;20019;-81
2021/05/05 11:29:50;;;;;;;2.55;0.73;;;;;;;18.14;46.38;100717.84;4978842;28;20027;-81
2021/05/05 11:32:36;;;;;;;2.97;0.73;;;;;;;18.22;46.25;100715.13;4979604;28;20118;-83
2021/05/05 11:35:01;;;;;;;2.65;0.98;;;;;;;18.22;46.08;100713.38;4983252;28;20031;-82
2021/05/05 11:37:29;;;;;;;1.63;0.63;;;;;;;18.16;46.46;100736.03;4983178;28;20061;-80
2021/05/05 11:39:57;;;;;;;3.10;0.98;;;;;;;18.06;46.55;100754.41;4988686;28;20027;-80
2021/05/05 11:42:25;;;;;;;2.28;0.85;;;;;;;18.04;46.60;100750.09;4991417;28;20038;-81
2021/05/05 11:44:55;;;;;;;3.50;1.02;;;;;;;18.05;46.52;100762.22;4992640;28;20026;-80
2021/05/05 11:47:24;;;;;;;1.23;0.65;;;;;;;18.08;46.34;100768.28;4983470;28;20046;-80
2021/05/05 11:49:55;;;;;;;1.75;0.90;;;;;;;18.09;46.30;100766.53;4982749;28;20030;-80
2021/05/05 11:52:31;;;;;;;1.95;0.70;;;;;;;18.11;46.36;100777.78;4980201;28;20023;-80
2021/05/05 11:55:07;;;;;;;2.58;1.02;;;;;;;18.11;46.40;100779.53;4981702;28;20031;-82
2021/05/05 11:57:38;;;;;;;1.38;0.70;;;;;;;18.11;46.32;100780.38;4981088;28;20112;-80
2021/05/05 12:00:17;;;;;;;2.17;0.77;;;;;;;18.08;46.31;100776.09;4981007;28;20031;-81
2021/05/05 12:02:56;;;;;;;2.30;0.90;;;;;;;18.06;46.52;100795.22;4982022;28;20425;-83
2021/05/05 12:05:24;;;;;;;2.08;0.85;;;;;;;18.06;46.58;100787.41;4980324;28;20037;-83
2021/05/05 12:08:13;;;;;;;2.20;0.82;;;;;;;18.15;46.25;100797.69;4979558;28;20039;-82
2021/05/05 12:10:43;;;;;;;1.83;0.80;;;;;;;18.18;46.34;100795.06;4979288;28;20039;-81
2021/05/05 12:13:10;;;;;;;1.65;0.70;;;;;;;18.19;46.50;100804.59;4962122;28;20037;-82
2021/05/05 12:15:41;;;;;;;2.10;0.80;;;;;;;18.22;46.34;100814.97;4961828;28;20043;-80
2021/05/05 12:18:18;;;;;;;1.48;0.57;;;;;;;18.18;46.32;100834.16;4977834;28;20117;-80
2021/05/05 12:20:45;;;;;;;2.13;0.63;;;;;;;18.22;46.29;100837.56;4979678;28;20034;-79
2021/05/05 12:23:11;;;;;;;2.13;0.70;;;;;;;18.20;46.30;100844.53;4979843;28;20181;-80
2021/05/05 12:25:36;;;;;;;2.47;0.80;;;;;;;18.19;46.41;100840.22;4981252;28;20478;-81
2021/05/05 12:28:14;;;;;;;2.38;0.80;;;;;;;18.15;46.67;100833.31;4962481;28;20019;-80
2021/05/05 12:30:42;;;;;;;2.20;0.95;;;;;;;18.16;46.26;100832.41;4980400;28;20050;-80
2021/05/05 12:33:09;;;;;;;2.50;0.90;;;;;;;18.15;46.70;100848.94;4980742;28;20107;-80
2021/05/05 12:35:36;;;;;;;1.50;0.60;;;;;;;18.16;46.44;100848.94;4966015;28;20023;-80
2021/05/05 12:38:11;;;;;;;1.40;0.80;;;;;;;18.12;46.43;100847.22;4982408;28;20035;-80
2021/05/05 12:40:37;;;;;;;2.17;0.80;;;;;;;18.21;46.49;100849.72;4965840;28;20071;-81
2021/05/05 12:43:17;;;;;;;2.55;0.98;;;;;;;18.26;46.31;100853.13;4981021;28;20043;-80
2021/05/05 12:45:46;;;;;;;1.85;0.88;;;;;;;18.30;46.10;100852.22;4965895;28;20041;-81
2021/05/05 12:48:12;;;;;;;3.20;0.93;;;;;;;18.26;46.24;100839.25;4984116;28;20110;-80
2021/05/05 12:50:43;;;;;;;1.83;0.90;;;;;;;18.20;46.51;100844.53;4982777;28;20062;-83
2021/05/05 12:53:10;;;;;;;1.85;0.85;;;;;;;18.21;46.42;100847.13;4981411;28;20035;-80
2021/05/05 12:55:38;;;;;;;1.73;0.70;;;;;;;18.24;46.38;100847.06;4983355;28;20074;-81
2021/05/05 12:58:07;;;;;;;2.67;1.00;;;;;;;18.23;46.31;100866.19;4962330;28;20055;-81
2021/05/05 13:00:33;;;;;;;1.63;0.80;;;;;;;18.15;46.47;100859.34;4962786;29;20035;-80
2021/05/05 13:03:13;;;;;;;2.40;0.95;;;;;;;18.16;46.50;100864.56;4945062;29;20043;-81
2021/05/05 13:05:57;;;;;;;1.40;0.60;;;;;;;18.19;46.37;100868.84;4962996;28;20086;-80
2021/05/05 13:08:35;;;;;;;;;;;;;;;18.18;46.40;100872.31;4964303;29;20031;-80
2021/05/05 13:11:05;;;;;;;1.92;0.70;;;;;;;18.16;46.03;100884.50;4963187;29;19922;-80
2021/05/05 13:13:43;;;;;;;1.95;0.80;;;;;;;18.25;46.30;100900.91;4963380;29;20027;-80
2021/05/05 13:19:35;;;;;;;1.67;0.90;;;;;;;18.32;46.11;100883.47;4884702;29;20124;-82
2021/05/05 13:32:53;;;;;;;1.95;0.90;;;;;;;18.25;46.32;100906.13;4963482;29;20485;-82
2021/05/05 13:35:31;;;;;;;2.10;0.70;;;;;;;18.29;46.47;100910.41;4962044;29;20027;-81
2021/05/05 13:38:15;;;;;;;2.20;0.95;;;;;;;18.37;46.01;100914.66;4960832;29;20027;-85
2021/05/05 13:40:44;;;;;;;1.80;0.70;;;;;;;18.37;46.04;100927.69;4943861;29;20027;-82
2021/05/05 13:43:20;;;;;;;1.52;0.60;;;;;;;18.41;46.39;100918.97;4960350;29;20110;-81
2021/05/05 13:45:53;;;;;;;3.15;0.90;;;;;;;18.42;46.22;100933.69;4959568;29;20023;-84
2021/05/05 13:51:02;;;;;;;1.63;0.90;;;;;;;18.37;46.54;100931.16;4931914;29;20046;-81
2021/05/05 13:53:28;;;;;;;2.20;0.75;;;;;;;18.32;46.59;100940.78;4960157;29;20027;-83
2021/05/05 13:55:53;;;;;;;1.92;0.80;;;;;;;18.29;46.42;100941.69;4961062;29;20500;-81
2021/05/05 13:58:19;;;;;;;2.25;0.90;;;;;;;18.30;46.58;100942.53;4967799;28;20050;-81
2021/05/05 14:00:44;;;;;;;1.83;0.73;;;;;;;18.29;46.37;100944.28;4981406;28;20084;-81
2021/05/05 14:03:09;;;;;;;1.75;0.70;;;;;;;18.32;46.42;100958.16;4965254;28;20121;-81